map of BBI home
BBI - Airport
Location
City:  Bhubaneswar, Odisha, India
Name:Biju Patnaik International Airport
Old (Alt.):Bhubaneswar Airport
ICAO:VEBS
IATA:BBI

Details
Type:Airport (Aerodrome, Airfield)
Use:Public/Civil, International (customs port of entry)
Latitude:20°14'40"N (20.244364)
Longitude:85°49'04"E (85.817781)
Datum:WGS 1984
Elevation:138 ft (42 m)
Variation:0.31°W (WMM2015 magnetic declination)
0.05° annual change
Runways:2
Longest:7359 × 150 ft (2243 × 45.5 m), paved

Time
Time Zone:UTC+5:30
Local Time:

Weather
METAR:VEBS 180500Z 03003KT 3000 HZ NSC 24/19 Q1016 NOSIG

Related Locations
Nearby:
Farthest:SCFX: 11458 mi / 18439 km
Isla San Félix, Desventuradas Islands, VS, CL

Find:

   beyond  
but within

Other Information
Maps:
NOTAMs:
Links:
Sources:

  
  • flag of India
  

Sectional Chart

Flight Planning
at skyvector.com

Satellite Image

Google Maps Satellite view

 

Copyright © 2004-2019 Karl L. Swartz. All rights reserved.
The Great Circle Mapper name and logo are trademarks of the Great Circle Mapper.
All other trademarks mentioned herein belong to their respective owners.
Please see credits for attibutions and further copyright information.

  Follow gcmap on Facebook Follow gcmap on Twitter Follow gcmap on Google+ GCmap on LinkedIn

hCard Microformat

Geo Microformat